Time;durP1;ratioP1;P1;durP2;ratioP2;P2;SDS_P1;SDS_P2;PMS_P1;PMS_P2;Temp;Humidity;BMP_temperature;BMP_pressure;BME280_temperature;BME280_humidity;BME280_pressure;Samples;Min_cycle;Max_cycle;Signal;HPM_P1;HPM_P2
2024/01/13 00:01:34;;;;;;;;;;;10.40;99.90;;;;;;5073272;28;19952;-77
2024/01/13 00:04:00;;;;;;;;;;;10.40;99.90;;;;;;5079661;28;19916;-77
2024/01/13 00:06:25;;;;;;;;;;;10.40;99.90;;;;;;5092879;28;19969;-76
2024/01/13 00:08:52;;;;;;;;;;;10.40;99.90;;;;;;5091767;28;20332;-76
2024/01/13 00:11:18;;;;;;;;;;;10.40;99.90;;;;;;5093415;28;20356;-76
2024/01/13 00:13:43;;;;;;;;;;;10.40;99.90;;;;;;5092883;28;19919;-76
2024/01/13 00:16:09;;;;;;;;;;;10.30;99.90;;;;;;5092538;28;19999;-76
2024/01/13 00:18:35;;;;;;;;;;;10.30;99.90;;;;;;5093056;28;19915;-76
2024/01/13 00:21:01;;;;;;;;;;;10.30;99.90;;;;;;5093237;28;19931;-77
2024/01/13 00:23:27;;;;;;;;;;;10.30;99.90;;;;;;5091554;28;20252;-76
2024/01/13 00:25:52;;;;;;;;;;;10.30;99.90;;;;;;5093006;28;19960;-76
2024/01/13 00:28:18;;;;;;;;;;;10.20;99.90;;;;;;5092744;28;19908;-76
2024/01/13 00:30:44;;;;;;;;;;;10.20;99.90;;;;;;5092736;28;19915;-75
2024/01/13 00:33:10;;;;;;;;;;;10.10;99.90;;;;;;5092981;28;20413;-76
2024/01/13 00:35:36;;;;;;;;;;;10.10;99.90;;;;;;5072701;28;20379;-71
2024/01/13 00:38:02;;;;;;;;;;;10.00;99.90;;;;;;5072603;28;19908;-76
2024/01/13 00:40:27;;;;;;;;;;;9.90;99.90;;;;;;5072117;28;20399;-75
2024/01/13 00:42:53;;;;;;;;;;;9.90;99.90;;;;;;5072446;28;19950;-76
2024/01/13 00:45:19;;;;;;;;;;;9.90;99.90;;;;;;5072104;28;20292;-76
2024/01/13 00:47:46;;;;;;;;;;;9.90;99.90;;;;;;5070716;28;19909;-76
2024/01/13 00:50:11;;;;;;;;;;;10.00;99.90;;;;;;5072465;28;19968;-76
2024/01/13 00:52:37;;;;;;;;;;;9.90;99.90;;;;;;5070625;28;20268;-76
2024/01/13 00:55:04;;;;;;;;;;;9.90;99.90;;;;;;5071722;28;19908;-75
2024/01/13 00:57:30;;;;;;;;;;;9.90;99.90;;;;;;5072273;28;19908;-76
2024/01/13 00:59:56;;;;;;;;;;;10.00;99.90;;;;;;5070221;28;19920;-76
2024/01/13 01:02:21;;;;;;;;;;;9.90;99.90;;;;;;5071547;28;19908;-76
2024/01/13 01:04:47;;;;;;;;;;;9.90;99.90;;;;;;5082642;28;19908;-76
2024/01/13 01:07:13;;;;;;;;;;;9.90;99.90;;;;;;5091015;28;20352;-75
2024/01/13 01:09:40;;;;;;;;;;;10.00;99.90;;;;;;5091529;28;19931;-76
2024/01/13 01:12:06;;;;;;;;;;;10.00;99.90;;;;;;5091707;28;19908;-76
2024/01/13 01:14:33;;;;;;;;;;;10.00;99.90;;;;;;5091327;28;19915;-76
2024/01/13 01:16:59;;;;;;;;;;;10.00;99.90;;;;;;5073978;28;19916;-70
2024/01/13 01:19:25;;;;;;;;;;;10.00;99.90;;;;;;5070960;28;19916;-76
2024/01/13 01:21:51;;;;;;;;;;;10.10;99.90;;;;;;5071273;28;19908;-75
2024/01/13 01:24:17;;;;;;;;;;;10.10;99.90;;;;;;5070906;28;19951;-76
2024/01/13 01:26:42;;;;;;;;;;;10.10;99.90;;;;;;5068810;28;19919;-72
2024/01/13 01:29:08;;;;;;;;;;;10.20;99.90;;;;;;5070672;28;19921;-76
2024/01/13 01:31:34;;;;;;;;;;;10.20;99.90;;;;;;5071272;28;19917;-75
2024/01/13 01:34:00;;;;;;;;;;;10.10;99.90;;;;;;5075377;28;19908;-75
2024/01/13 01:36:26;;;;;;;;;;;10.10;99.90;;;;;;5089488;28;20229;-76
2024/01/13 01:38:52;;;;;;;;;;;10.10;99.90;;;;;;5091063;28;20022;-75
2024/01/13 01:41:21;;;;;;;;;;;10.20;99.90;;;;;;5090575;28;19919;-70
2024/01/13 01:43:46;;;;;;;;;;;10.20;99.90;;;;;;5090809;28;19935;-76
2024/01/13 01:46:19;;;;;;;;;;;10.30;99.90;;;;;;5089847;28;20317;-74
2024/01/13 01:48:45;;;;;;;;;;;10.30;99.90;;;;;;5090736;28;19908;-76
2024/01/13 01:51:11;;;;;;;;;;;10.30;99.90;;;;;;5084663;28;19920;-75
2024/01/13 01:53:37;;;;;;;;;;;10.30;99.90;;;;;;5069648;28;20014;-75
2024/01/13 01:56:10;;;;;;;;;;;10.20;99.90;;;;;;5068417;28;19920;-73
2024/01/13 01:58:36;;;;;;;;;;;10.20;99.90;;;;;;5069387;28;19999;-74
2024/01/13 02:01:02;;;;;;;;;;;10.20;99.90;;;;;;5070317;28;19912;-75
2024/01/13 02:03:28;;;;;;;;;;;10.10;99.90;;;;;;5071838;28;19916;-74
2024/01/13 02:05:55;;;;;;;;;;;10.00;99.90;;;;;;5090593;28;19908;-74
2024/01/13 02:08:21;;;;;;;;;;;10.10;99.90;;;;;;5090280;28;19909;-72
2024/01/13 02:10:49;;;;;;;;;;;10.10;99.90;;;;;;5090187;28;19908;-75
2024/01/13 02:13:15;;;;;;;;;;;10.10;99.90;;;;;;5090436;28;19999;-74
2024/01/13 02:15:41;;;;;;;;;;;10.10;99.90;;;;;;5089973;28;20288;-75
2024/01/13 02:18:07;;;;;;;;;;;10.20;99.90;;;;;;5088506;28;19919;-74
2024/01/13 02:20:33;;;;;;;;;;;10.20;99.90;;;;;;5090051;28;19920;-74
2024/01/13 02:22:58;;;;;;;;;;;10.20;99.90;;;;;;5090091;28;20402;-75
2024/01/13 02:25:24;;;;;;;;;;;10.20;99.90;;;;;;5090293;28;20012;-74
2024/01/13 02:27:50;;;;;;;;;;;10.20;99.90;;;;;;5090214;28;20369;-75
2024/01/13 02:30:16;;;;;;;;;;;10.20;99.90;;;;;;5089633;28;19908;-75
2024/01/13 02:32:42;;;;;;;;;;;10.20;99.90;;;;;;5089950;28;19908;-75
2024/01/13 02:35:08;;;;;;;;;;;10.20;99.90;;;;;;5089734;28;19908;-74
2024/01/13 02:37:34;;;;;;;;;;;10.10;99.90;;;;;;5088306;28;19919;-75
2024/01/13 02:40:00;;;;;;;;;;;10.10;99.90;;;;;;5072971;28;19916;-74
2024/01/13 02:42:26;;;;;;;;;;;10.10;99.90;;;;;;5073946;28;19947;-74
2024/01/13 02:44:52;;;;;;;;;;;10.00;99.90;;;;;;5073388;28;19912;-75
2024/01/13 02:47:23;;;;;;;;;;;10.00;99.90;;;;;;5072037;28;20364;-72
2024/01/13 02:49:48;;;;;;;;;;;9.90;99.90;;;;;;5073893;28;19999;-74
2024/01/13 02:52:14;;;;;;;;;;;9.90;99.90;;;;;;5073307;28;20063;-74
2024/01/13 02:54:40;;;;;;;;;;;9.90;99.90;;;;;;5073662;28;19996;-75
2024/01/13 02:57:06;;;;;;;;;;;9.90;99.90;;;;;;5073416;28;20008;-74
2024/01/13 02:59:33;;;;;;;;;;;9.90;99.90;;;;;;5073277;28;19917;-74
2024/01/13 03:01:59;;;;;;;;;;;9.90;99.90;;;;;;5054300;28;19913;-74
2024/01/13 03:04:25;;;;;;;;;;;10.00;99.90;;;;;;5071394;28;19939;-75
2024/01/13 03:06:51;;;;;;;;;;;9.90;99.90;;;;;;5093766;28;19969;-74
2024/01/13 03:09:17;;;;;;;;;;;10.00;99.90;;;;;;5093485;28;20017;-75
2024/01/13 03:11:43;;;;;;;;;;;10.00;99.90;;;;;;5075738;28;20349;-75
2024/01/13 03:14:09;;;;;;;;;;;10.00;99.90;;;;;;5073159;28;19962;-75
2024/01/13 03:16:35;;;;;;;;;;;10.00;99.90;;;;;;5073273;28;20285;-75
2024/01/13 03:19:00;;;;;;;;;;;10.10;99.90;;;;;;5072963;28;19908;-75
2024/01/13 03:21:26;;;;;;;;;;;10.10;99.90;;;;;;5073143;28;19908;-75
2024/01/13 03:23:54;;;;;;;;;;;10.00;99.90;;;;;;5072853;28;20241;-74
2024/01/13 03:26:19;;;;;;;;;;;10.00;99.90;;;;;;5072715;28;19981;-75
2024/01/13 03:28:45;;;;;;;;;;;9.90;99.90;;;;;;5071899;28;20279;-75
2024/01/13 03:31:12;;;;;;;;;;;9.80;99.90;;;;;;5070065;28;19943;-73
2024/01/13 03:33:41;;;;;;;;;;;9.80;99.90;;;;;;5070984;28;19913;-75
2024/01/13 03:36:10;;;;;;;;;;;9.80;99.90;;;;;;5070395;28;19908;-75
2024/01/13 03:38:36;;;;;;;;;;;9.80;99.90;;;;;;5072468;28;19977;-75
2024/01/13 03:41:02;;;;;;;;;;;9.80;99.90;;;;;;5071900;28;19928;-75
2024/01/13 03:43:28;;;;;;;;;;;9.80;99.90;;;;;;5072107;28;19996;-75
2024/01/13 03:45:54;;;;;;;;;;;9.80;99.90;;;;;;5071874;28;20194;-75
2024/01/13 03:48:20;;;;;;;;;;;9.80;99.90;;;;;;5072041;28;20008;-75
2024/01/13 03:50:46;;;;;;;;;;;9.80;99.90;;;;;;5071026;28;20441;-74
2024/01/13 03:53:11;;;;;;;;;;;9.80;99.90;;;;;;5071885;28;19931;-74
2024/01/13 03:55:37;;;;;;;;;;;9.80;99.90;;;;;;5072143;28;19994;-75
2024/01/13 03:58:03;;;;;;;;;;;9.70;99.90;;;;;;5072461;28;20369;-74
2024/01/13 04:00:29;;;;;;;;;;;9.60;99.90;;;;;;5071985;28;19913;-75
2024/01/13 04:02:56;;;;;;;;;;;9.50;99.90;;;;;;5070566;28;20000;-75
2024/01/13 04:05:22;;;;;;;;;;;9.50;99.90;;;;;;5089836;28;20364;-75
2024/01/13 04:07:47;;;;;;;;;;;9.50;99.90;;;;;;5090937;28;19957;-75
2024/01/13 04:10:13;;;;;;;;;;;9.40;99.90;;;;;;5090638;28;19919;-75
2024/01/13 04:12:40;;;;;;;;;;;9.50;99.90;;;;;;5092330;28;19998;-75
2024/01/13 04:15:06;;;;;;;;;;;9.50;99.90;;;;;;5092067;28;19908;-75
2024/01/13 04:17:32;;;;;;;;;;;9.50;99.90;;;;;;5092499;28;19919;-75
2024/01/13 04:19:57;;;;;;;;;;;9.60;99.90;;;;;;5089381;28;19961;-75
2024/01/13 04:22:23;;;;;;;;;;;9.60;99.90;;;;;;5071894;28;19967;-75
2024/01/13 04:24:49;;;;;;;;;;;9.70;99.90;;;;;;5070578;28;20324;-75
2024/01/13 04:27:15;;;;;;;;;;;9.70;99.90;;;;;;5072230;28;19954;-75
2024/01/13 04:29:40;;;;;;;;;;;10.00;99.90;;;;;;5072018;28;20356;-75
2024/01/13 04:32:06;;;;;;;;;;;9.70;99.90;;;;;;5072220;28;19908;-75
2024/01/13 04:34:33;;;;;;;;;;;9.60;99.90;;;;;;5080787;28;19955;-75
2024/01/13 04:37:00;;;;;;;;;;;9.70;99.90;;;;;;5089721;28;19908;-75
2024/01/13 04:39:26;;;;;;;;;;;9.60;99.90;;;;;;5080332;28;19956;-75
2024/01/13 04:41:52;;;;;;;;;;;9.60;99.90;;;;;;5072212;28;19996;-75
2024/01/13 04:44:18;;;;;;;;;;;9.70;99.90;;;;;;5070722;28;19963;-75
2024/01/13 04:46:43;;;;;;;;;;;9.70;99.90;;;;;;5071854;28;20098;-74
2024/01/13 04:49:10;;;;;;;;;;;9.80;99.90;;;;;;5071941;28;19970;-75
2024/01/13 04:51:36;;;;;;;;;;;9.80;99.90;;;;;;5071671;28;19914;-75
2024/01/13 04:54:03;;;;;;;;;;;9.90;99.90;;;;;;5072286;28;19912;-75
2024/01/13 04:56:29;;;;;;;;;;;10.00;99.90;;;;;;5070898;28;19961;-76
2024/01/13 04:58:55;;;;;;;;;;;10.00;99.90;;;;;;5072455;28;20352;-73
2024/01/13 05:01:21;;;;;;;;;;;10.10;99.90;;;;;;5072432;28;19983;-76
2024/01/13 05:03:47;;;;;;;;;;;10.10;99.90;;;;;;5076141;28;19927;-75
2024/01/13 05:06:15;;;;;;;;;;;10.20;99.90;;;;;;5074492;28;19916;-75
2024/01/13 05:08:43;;;;;;;;;;;10.20;99.90;;;;;;5072197;28;20034;-76
2024/01/13 05:11:08;;;;;;;;;;;10.30;99.90;;;;;;5071997;28;20042;-75
2024/01/13 05:13:34;;;;;;;;;;;10.20;99.90;;;;;;5072077;28;19946;-75
2024/01/13 05:16:00;;;;;;;;;;;10.20;99.90;;;;;;5072152;28;19940;-75
2024/01/13 05:18:26;;;;;;;;;;;10.10;99.90;;;;;;5072065;28;19915;-76
2024/01/13 05:20:52;;;;;;;;;;;10.10;99.90;;;;;;5073211;28;20384;-75
2024/01/13 05:23:18;;;;;;;;;;;10.00;99.90;;;;;;5073315;28;20023;-76
2024/01/13 05:25:44;;;;;;;;;;;10.00;99.90;;;;;;5073353;28;19939;-75
2024/01/13 05:28:09;;;;;;;;;;;10.00;99.90;;;;;;5071871;28;19915;-74
2024/01/13 05:30:35;;;;;;;;;;;10.00;99.90;;;;;;5072620;28;20307;-76
2024/01/13 05:33:01;;;;;;;;;;;10.00;99.90;;;;;;5071085;28;19919;-76
2024/01/13 05:35:27;;;;;;;;;;;9.90;99.90;;;;;;5090522;28;19918;-76
2024/01/13 05:37:54;;;;;;;;;;;9.90;99.90;;;;;;5093602;28;19908;-75
2024/01/13 05:40:24;;;;;;;;;;;9.90;99.90;;;;;;5093254;28;20338;-76
2024/01/13 05:42:49;;;;;;;;;;;10.00;99.90;;;;;;5093410;28;19909;-75
2024/01/13 05:45:15;;;;;;;;;;;9.90;99.90;;;;;;5086328;28;19912;-69
2024/01/13 05:47:42;;;;;;;;;;;10.00;99.90;;;;;;5071235;28;19973;-73
2024/01/13 05:50:10;;;;;;;;;;;10.00;99.90;;;;;;5071844;28;19919;-69
2024/01/13 05:52:36;;;;;;;;;;;10.00;99.90;;;;;;5070411;28;19919;-74
2024/01/13 05:55:05;;;;;;;;;;;10.10;99.90;;;;;;5071614;28;20284;-75
2024/01/13 05:57:32;;;;;;;;;;;10.10;99.90;;;;;;5073308;28;19919;-75
2024/01/13 05:59:57;;;;;;;;;;;10.10;99.90;;;;;;5072696;28;19909;-75
2024/01/13 06:02:23;;;;;;;;;;;10.10;99.90;;;;;;5072721;28;19931;-74
2024/01/13 06:04:49;;;;;;;;;;;10.10;99.90;;;;;;5077525;28;20339;-76
2024/01/13 06:07:15;;;;;;;;;;;10.00;99.90;;;;;;5072886;28;19935;-75
2024/01/13 06:09:41;;;;;;;;;;;10.00;99.90;;;;;;5072684;28;19908;-75
2024/01/13 06:12:07;;;;;;;;;;;10.00;99.90;;;;;;5072675;28;19991;-75
2024/01/13 06:14:33;;;;;;;;;;;10.00;99.90;;;;;;5070823;28;19962;-76
2024/01/13 06:16:59;;;;;;;;;;;10.00;99.90;;;;;;5071170;28;19908;-74
2024/01/13 06:19:25;;;;;;;;;;;10.10;99.90;;;;;;5074639;28;20394;-77
2024/01/13 06:21:57;;;;;;;;;;;10.30;99.90;;;;;;5071276;28;19909;-77
2024/01/13 06:24:22;;;;;;;;;;;10.40;99.90;;;;;;5072679;28;19921;-76
2024/01/13 06:26:52;;;;;;;;;;;10.40;99.90;;;;;;5072214;28;20374;-77
2024/01/13 06:29:18;;;;;;;;;;;10.30;99.90;;;;;;5072107;28;19909;-77
2024/01/13 06:31:43;;;;;;;;;;;10.30;99.90;;;;;;5070289;28;19924;-75
2024/01/13 06:34:09;;;;;;;;;;;10.40;99.90;;;;;;5078325;28;20403;-77
2024/01/13 06:36:35;;;;;;;;;;;10.30;99.90;;;;;;5092424;28;19958;-77
2024/01/13 06:39:01;;;;;;;;;;;10.30;99.90;;;;;;5090886;28;19912;-77
2024/01/13 06:41:27;;;;;;;;;;;10.20;99.90;;;;;;5091635;28;19921;-78
2024/01/13 06:43:53;;;;;;;;;;;9.80;99.90;;;;;;5092066;28;20466;-77
2024/01/13 06:46:19;;;;;;;;;;;10.40;99.90;;;;;;5092033;28;19908;-77
2024/01/13 06:48:45;;;;;;;;;;;10.70;99.90;;;;;;5090217;28;19914;-77
2024/01/13 06:51:13;;;;;;;;;;;11.10;99.90;;;;;;5091298;28;19953;-77
2024/01/13 06:53:42;;;;;;;;;;;11.60;99.90;;;;;;5090071;28;19952;-77
2024/01/13 06:56:08;;;;;;;;;;;12.20;99.90;;;;;;5092916;28;19998;-78
2024/01/13 06:58:34;;;;;;;;;;;12.80;99.90;;;;;;5089564;28;20378;-78
2024/01/13 07:01:00;;;;;;;;;;;13.60;99.90;;;;;;5090992;28;19928;-76
2024/01/13 07:03:26;;;;;;;;;;;14.30;99.90;;;;;;5090924;28;20006;-78
2024/01/13 07:05:51;;;;;;;;;;;14.50;99.90;;;;;;5091191;28;19908;-77
2024/01/13 07:08:18;;;;;;;;;;;14.70;99.90;;;;;;5091685;28;20363;-75
2024/01/13 07:10:43;;;;;;;;;;;14.90;99.90;;;;;;5091154;28;20402;-73
2024/01/13 07:13:09;;;;;;;;;;;15.30;99.90;;;;;;5091628;28;19908;-76
2024/01/13 07:15:35;;;;;;;;;;;15.40;99.90;;;;;;5090537;28;19912;-77
2024/01/13 07:18:02;;;;;;;;;;;16.20;99.90;;;;;;5090560;28;19923;-77
2024/01/13 07:20:28;;;;;;;;;;;16.80;99.90;;;;;;5089589;28;19980;-77
2024/01/13 07:22:54;;;;;;;;;;;17.40;99.90;;;;;;5091589;28;20419;-75
2024/01/13 07:25:20;;;;;;;;;;;17.70;99.90;;;;;;5090658;28;19971;-78
2024/01/13 07:27:46;;;;;;;;;;;17.10;99.90;;;;;;5094819;28;19931;-75
2024/01/13 07:30:12;;;;;;;;;;;17.50;99.90;;;;;;5095381;28;19908;-77
2024/01/13 07:32:38;;;;;;;;;;;17.70;99.90;;;;;;5095254;28;19995;-78
2024/01/13 07:35:04;;;;;;;;;;;17.80;99.90;;;;;;5095295;28;20420;-76
2024/01/13 07:37:30;;;;;;;;;;;17.90;99.90;;;;;;5093790;28;20364;-78
2024/01/13 07:39:56;;;;;;;;;;;18.50;99.90;;;;;;5093646;28;19966;-78
2024/01/13 07:42:22;;;;;;;;;;;18.70;99.90;;;;;;5076079;28;19917;-79
2024/01/13 07:44:48;;;;;;;;;;;18.80;99.90;;;;;;5073211;28;19977;-80
2024/01/13 07:47:13;;;;;;;;;;;19.00;99.90;;;;;;5073392;28;19916;-81
2024/01/13 07:49:39;;;;;;;;;;;18.90;99.90;;;;;;5074213;28;19999;-80
2024/01/13 07:52:06;;;;;;;;;;;19.00;99.90;;;;;;5074569;28;19915;-80
2024/01/13 07:54:33;;;;;;;;;;;19.40;99.90;;;;;;5074415;28;19917;-80
2024/01/13 07:56:59;;;;;;;;;;;19.00;99.90;;;;;;5074447;28;19951;-80
2024/01/13 07:59:24;;;;;;;;;;;18.70;99.90;;;;;;5072737;28;19909;-78
2024/01/13 08:01:50;;;;;;;;;;;18.30;99.90;;;;;;5074263;28;19917;-79
2024/01/13 08:04:16;;;;;;;;;;;17.90;99.90;;;;;;5081392;28;19916;-78
2024/01/13 08:06:44;;;;;;;;;;;17.50;99.90;;;;;;5094998;28;20259;-79
2024/01/13 08:09:10;;;;;;;;;;;17.20;99.90;;;;;;5094177;28;19918;-79
2024/01/13 08:11:36;;;;;;;;;;;16.70;99.90;;;;;;5075028;28;19908;-78
2024/01/13 08:14:01;;;;;;;;;;;16.50;99.90;;;;;;5073760;28;20412;-79
2024/01/13 08:16:29;;;;;;;;;;;16.20;99.90;;;;;;5073914;28;19954;-79
2024/01/13 08:18:55;;;;;;;;;;;15.90;99.90;;;;;;5072592;28;19912;-79
2024/01/13 08:21:21;;;;;;;;;;;15.70;99.90;;;;;;5072770;28;19908;-79
2024/01/13 08:23:47;;;;;;;;;;;15.70;99.90;;;;;;5073969;28;19916;-78
2024/01/13 08:26:12;;;;;;;;;;;15.60;99.90;;;;;;5073738;28;19916;-78
2024/01/13 08:28:38;;;;;;;;;;;15.70;99.90;;;;;;5073797;28;19991;-78
2024/01/13 08:31:04;;;;;;;;;;;15.70;99.90;;;;;;5073314;28;19948;-78
2024/01/13 08:33:30;;;;;;;;;;;15.60;99.90;;;;;;5074306;28;20340;-76
2024/01/13 08:35:56;;;;;;;;;;;15.60;99.90;;;;;;5093981;28;19919;-77
2024/01/13 08:38:21;;;;;;;;;;;15.60;99.90;;;;;;5092548;28;20051;-75
2024/01/13 08:40:47;;;;;;;;;;;15.60;99.90;;;;;;5093669;28;19920;-78
2024/01/13 08:43:13;;;;;;;;;;;15.50;99.90;;;;;;5094029;28;19924;-78
2024/01/13 08:45:39;;;;;;;;;;;15.40;99.90;;;;;;5092031;28;19915;-78
2024/01/13 08:48:05;;;;;;;;;;;15.30;99.90;;;;;;5093092;28;20333;-78
2024/01/13 08:50:32;;;;;;;;;;;15.40;99.90;;;;;;5093455;28;19908;-77
2024/01/13 08:52:57;;;;;;;;;;;15.40;99.90;;;;;;5093381;28;20059;-79
2024/01/13 08:55:24;;;;;;;;;;;15.50;99.90;;;;;;5093685;28;20035;-79
2024/01/13 08:57:50;;;;;;;;;;;15.40;99.90;;;;;;5093634;28;20022;-79
2024/01/13 09:00:17;;;;;;;;;;;15.50;99.90;;;;;;5093442;28;20375;-79
2024/01/13 09:02:43;;;;;;;;;;;15.50;99.90;;;;;;5093394;28;19973;-80
2024/01/13 09:05:09;;;;;;;;;;;15.60;99.90;;;;;;5076469;28;20030;-78
2024/01/13 09:07:41;;;;;;;;;;;15.30;99.90;;;;;;5069884;28;20007;-75
2024/01/13 09:10:07;;;;;;;;;;;15.20;99.90;;;;;;5073012;28;20007;-75
2024/01/13 09:12:33;;;;;;;;;;;15.30;99.90;;;;;;5071900;28;19991;-77
2024/01/13 09:14:59;;;;;;;;;;;15.30;99.90;;;;;;5071050;28;19913;-77
2024/01/13 09:17:24;;;;;;;;;;;15.60;99.90;;;;;;5072194;28;19991;-76
2024/01/13 09:19:52;;;;;;;;;;;15.70;99.90;;;;;;5071665;28;19913;-75
2024/01/13 09:22:18;;;;;;;;;;;15.70;99.90;;;;;;5072586;28;19963;-77
2024/01/13 09:24:44;;;;;;;;;;;15.70;99.90;;;;;;5072915;28;19959;-74
2024/01/13 09:27:10;;;;;;;;;;;15.70;99.90;;;;;;5072584;28;20343;-75
2024/01/13 09:29:36;;;;;;;;;;;15.60;99.90;;;;;;5070542;28;20012;-76
2024/01/13 09:32:04;;;;;;;;;;;15.40;99.90;;;;;;5070896;28;20007;-75
2024/01/13 09:34:30;;;;;;;;;;;15.50;99.90;;;;;;5072306;28;19936;-75
2024/01/13 09:36:56;;;;;;;;;;;15.70;99.90;;;;;;5072191;28;20372;-75
2024/01/13 09:39:22;;;;;;;;;;;15.80;99.90;;;;;;5072145;28;19915;-71
2024/01/13 09:41:48;;;;;;;;;;;15.70;99.90;;;;;;5072456;28;20001;-74
2024/01/13 09:44:24;;;;;;;;;;;16.00;99.90;;;;;;5071751;28;19961;-75
2024/01/13 09:46:51;;;;;;;;;;;16.10;99.90;;;;;;5072154;28;19910;-75
2024/01/13 09:49:17;;;;;;;;;;;15.90;99.90;;;;;;5070026;28;19931;-69
2024/01/13 09:51:44;;;;;;;;;;;15.90;99.90;;;;;;5071823;28;19962;-73
2024/01/13 09:54:28;;;;;;;;;;;15.60;99.90;;;;;;5071647;28;19935;-74
2024/01/13 09:56:55;;;;;;;;;;;15.60;99.90;;;;;;5071941;28;19981;-72
2024/01/13 09:59:22;;;;;;;;;;;15.60;99.90;;;;;;5071594;28;19908;-76
2024/01/13 10:01:49;;;;;;;;;;;15.30;99.90;;;;;;5072386;28;19975;-75
2024/01/13 10:04:15;;;;;;;;;;;15.40;99.90;;;;;;5080245;28;20333;-76
2024/01/13 10:06:41;;;;;;;;;;;15.60;99.90;;;;;;5092418;28;19974;-76
2024/01/13 10:09:10;;;;;;;;;;;15.60;99.90;;;;;;5092157;28;19909;-75
2024/01/13 10:11:36;;;;;;;;;;;15.60;99.90;;;;;;5090952;28;19923;-75
2024/01/13 10:14:06;;;;;;;;;;;15.40;99.90;;;;;;5090585;28;19908;-75
2024/01/13 10:16:33;;;;;;;;;;;15.50;99.90;;;;;;5091794;28;20280;-74
2024/01/13 10:19:03;;;;;;;;;;;15.60;99.90;;;;;;5092071;28;19959;-76
2024/01/13 10:21:29;;;;;;;;;;;15.90;99.90;;;;;;5072522;28;20039;-78
2024/01/13 10:23:56;;;;;;;;;;;16.20;99.90;;;;;;5070987;28;19924;-72
2024/01/13 10:26:23;;;;;;;;;;;16.40;99.90;;;;;;5068839;28;19969;-74
2024/01/13 10:28:50;;;;;;;;;;;16.60;99.90;;;;;;5070949;28;19909;-75
2024/01/13 10:31:17;;;;;;;;;;;16.30;99.90;;;;;;5072045;28;20055;-69
2024/01/13 10:33:47;;;;;;;;;;;16.30;99.90;;;;;;5069702;28;20415;-73
2024/01/13 10:36:23;;;;;;;;;;;15.90;99.90;;;;;;5092275;28;19970;-78
2024/01/13 10:38:49;;;;;;;;;;;15.80;99.90;;;;;;5069026;28;20003;-69
2024/01/13 10:41:22;;;;;;;;;;;15.90;99.90;;;;;;5071454;28;19920;-70
2024/01/13 10:44:00;;;;;;;;;;;16.10;99.90;;;;;;5071183;28;19923;-70
2024/01/13 10:46:27;;;;;;;;;;;15.90;99.90;;;;;;5071373;28;19934;-70
2024/01/13 10:48:59;;;;;;;;;;;16.10;99.90;;;;;;5071403;28;19909;-69
2024/01/13 10:51:31;;;;;;;;;;;16.00;99.90;;;;;;5071543;28;19908;-70
2024/01/13 10:54:15;;;;;;;;;;;16.00;99.90;;;;;;5071585;28;19916;-68
2024/01/13 10:56:57;;;;;;;;;;;16.10;99.90;;;;;;5071542;28;20263;-64
2024/01/13 10:59:26;;;;;;;;;;;16.30;99.90;;;;;;5062117;28;19963;-68
2024/01/13 11:01:53;;;;;;;;;;;16.40;99.90;;;;;;5072137;28;19923;-66
2024/01/13 11:04:20;;;;;;;;;;;16.40;99.90;;;;;;5083714;28;19936;-68
2024/01/13 11:06:49;;;;;;;;;;;16.50;99.90;;;;;;5095214;28;20003;-68
2024/01/13 11:09:16;;;;;;;;;;;16.60;99.90;;;;;;5095197;28;20073;-68
2024/01/13 11:11:47;;;;;;;;;;;16.40;99.90;;;;;;5079145;28;20020;-68
2024/01/13 11:14:14;;;;;;;;;;;16.40;99.90;;;;;;5074172;28;19909;-68
2024/01/13 11:16:41;;;;;;;;;;;16.10;99.90;;;;;;5073752;28;19953;-68
2024/01/13 11:19:06;;;;;;;;;;;16.30;99.90;;;;;;5073872;28;19909;-70
2024/01/13 11:21:33;;;;;;;;;;;16.50;99.90;;;;;;5073397;28;19999;-70
2024/01/13 11:24:10;;;;;;;;;;;16.40;99.90;;;;;;5072560;28;19939;-66
2024/01/13 11:26:42;;;;;;;;;;;16.60;99.90;;;;;;5072587;28;19947;-68
2024/01/13 11:29:28;;;;;;;;;;;16.30;99.90;;;;;;5072545;28;20363;-66
2024/01/13 11:31:57;;;;;;;;;;;16.10;99.90;;;;;;5071174;28;19927;-66
2024/01/13 11:34:29;;;;;;;;;;;16.30;99.90;;;;;;5082365;28;20336;-67
2024/01/13 11:36:59;;;;;;;;;;;16.50;99.90;;;;;;5093549;28;20341;-67
2024/01/13 11:39:25;;;;;;;;;;;16.60;99.90;;;;;;5094595;28;19912;-66
2024/01/13 11:41:52;;;;;;;;;;;16.20;99.90;;;;;;5093099;28;19921;-69
2024/01/13 11:44:38;;;;;;;;;;;16.10;99.90;;;;;;5081777;28;20398;-70
2024/01/13 11:47:07;;;;;;;;;;;16.10;99.90;;;;;;5070220;28;19970;-67
2024/01/13 11:49:39;;;;;;;;;;;16.10;99.90;;;;;;5074271;28;19912;-68
2024/01/13 11:52:15;;;;;;;;;;;16.30;99.90;;;;;;5074493;28;19912;-69
2024/01/13 11:54:41;;;;;;;;;;;16.80;99.90;;;;;;5074434;28;19927;-70
2024/01/13 11:57:11;;;;;;;;;;;17.20;99.90;;;;;;5074210;28;20007;-69
2024/01/13 11:59:38;;;;;;;;;;;17.30;99.90;;;;;;5074042;28;19916;-66
2024/01/13 12:02:04;;;;;;;;;;;17.00;99.90;;;;;;5073749;28;19908;-67
2024/01/13 12:04:31;;;;;;;;;;;16.70;99.90;;;;;;5083839;28;19922;-67
2024/01/13 12:06:57;;;;;;;;;;;16.30;99.90;;;;;;5094407;28;19908;-68
2024/01/13 12:09:24;;;;;;;;;;;16.10;99.90;;;;;;5092904;28;20407;-67
2024/01/13 12:11:51;;;;;;;;;;;15.90;99.90;;;;;;5093909;28;19915;-67
2024/01/13 12:14:16;;;;;;;;;;;15.90;99.90;;;;;;5092561;28;19908;-67
2024/01/13 12:16:42;;;;;;;;;;;15.90;99.90;;;;;;5092619;28;19908;-67
2024/01/13 12:19:08;;;;;;;;;;;16.00;99.90;;;;;;5095000;28;20234;-67
2024/01/13 12:21:36;;;;;;;;;;;16.10;99.90;;;;;;5093716;28;19931;-67
2024/01/13 12:24:02;;;;;;;;;;;16.20;99.90;;;;;;5094857;28;20346;-67
2024/01/13 12:26:29;;;;;;;;;;;16.30;99.90;;;;;;5093817;28;19915;-66
2024/01/13 12:29:08;;;;;;;;;;;16.40;99.90;;;;;;5094676;28;20371;-66
2024/01/13 12:31:34;;;;;;;;;;;16.30;99.90;;;;;;5077502;28;20031;-67
2024/01/13 12:34:09;;;;;;;;;;;16.50;99.90;;;;;;5077966;28;19908;-66
2024/01/13 12:36:36;;;;;;;;;;;16.60;99.90;;;;;;5074618;28;19997;-67
2024/01/13 12:39:02;;;;;;;;;;;16.50;99.90;;;;;;5074486;28;20360;-67
2024/01/13 12:41:31;;;;;;;;;;;16.20;99.90;;;;;;5074203;28;19928;-67
2024/01/13 12:44:00;;;;;;;;;;;15.50;99.90;;;;;;5074401;28;20053;-67
2024/01/13 12:46:26;;;;;;;;;;;14.80;99.90;;;;;;5074174;28;19993;-66
2024/01/13 12:48:52;;;;;;;;;;;14.80;99.90;;;;;;5074051;28;19939;-67
2024/01/13 12:51:19;;;;;;;;;;;14.80;99.90;;;;;;5073961;28;19909;-68
2024/01/13 12:53:46;;;;;;;;;;;14.80;99.90;;;;;;5074239;28;19966;-66
2024/01/13 12:56:13;;;;;;;;;;;14.70;99.90;;;;;;5072698;28;19908;-65
2024/01/13 12:58:38;;;;;;;;;;;14.50;99.90;;;;;;5074260;28;19915;-66
2024/01/13 13:01:07;;;;;;;;;;;14.50;99.90;;;;;;5073041;28;19913;-67
2024/01/13 13:03:33;;;;;;;;;;;14.50;99.90;;;;;;5076470;28;19986;-65
2024/01/13 13:06:02;;;;;;;;;;;14.50;99.90;;;;;;5094355;28;19912;-67
2024/01/13 13:08:28;;;;;;;;;;;14.70;99.90;;;;;;5094385;28;19908;-66
2024/01/13 13:10:54;;;;;;;;;;;14.70;99.90;;;;;;5094183;28;19916;-66
2024/01/13 13:13:21;;;;;;;;;;;14.70;99.90;;;;;;5094203;28;19908;-66
2024/01/13 13:15:47;;;;;;;;;;;14.70;99.90;;;;;;5094316;28;20003;-67
2024/01/13 13:18:13;;;;;;;;;;;14.80;99.90;;;;;;5094061;28;19951;-66
2024/01/13 13:20:38;;;;;;;;;;;14.70;99.90;;;;;;5094194;28;20347;-66
2024/01/13 13:23:06;;;;;;;;;;;14.80;99.90;;;;;;5082732;28;19908;-73
2024/01/13 13:25:35;;;;;;;;;;;14.80;99.90;;;;;;5073939;28;19916;-74
2024/01/13 13:28:01;;;;;;;;;;;14.80;99.90;;;;;;5072594;28;19971;-73
2024/01/13 13:30:29;;;;;;;;;;;15.00;99.90;;;;;;5073947;28;20375;-73
2024/01/13 13:32:55;;;;;;;;;;;15.00;99.90;;;;;;5072451;28;19934;-73
2024/01/13 13:35:21;;;;;;;;;;;15.10;99.90;;;;;;5091328;28;20267;-73
2024/01/13 13:37:48;;;;;;;;;;;14.90;99.90;;;;;;5094039;28;19908;-73
2024/01/13 13:40:14;;;;;;;;;;;14.80;99.90;;;;;;5093537;28;19920;-73
2024/01/13 13:42:41;;;;;;;;;;;14.80;99.90;;;;;;5093848;28;19909;-73
2024/01/13 13:45:06;;;;;;;;;;;14.70;99.90;;;;;;5092254;28;19916;-72
2024/01/13 13:47:32;;;;;;;;;;;14.50;99.90;;;;;;5093792;28;19914;-71
2024/01/13 13:49:58;;;;;;;;;;;14.50;99.90;;;;;;5093721;28;19915;-73
2024/01/13 13:52:24;;;;;;;;;;;14.50;99.90;;;;;;5093663;28;19912;-73
2024/01/13 13:54:50;;;;;;;;;;;14.70;99.90;;;;;;5093612;28;19964;-73
2024/01/13 13:57:15;;;;;;;;;;;14.70;99.90;;;;;;5093489;28;19915;-73
2024/01/13 13:59:41;;;;;;;;;;;14.70;99.90;;;;;;5093610;28;19909;-72
2024/01/13 14:02:07;;;;;;;;;;;14.70;99.90;;;;;;5093522;28;19908;-71
2024/01/13 14:04:33;;;;;;;;;;;14.60;99.90;;;;;;5093346;28;19916;-73
2024/01/13 14:06:59;;;;;;;;;;;14.40;99.90;;;;;;5093715;28;20372;-76
2024/01/13 14:09:24;;;;;;;;;;;14.40;99.90;;;;;;5093520;28;19916;-72
2024/01/13 14:11:50;;;;;;;;;;;14.40;99.90;;;;;;5093511;28;20292;-80
2024/01/13 14:14:16;;;;;;;;;;;14.30;99.90;;;;;;5093515;28;19908;-75
2024/01/13 14:16:43;;;;;;;;;;;14.20;99.90;;;;;;5093360;28;20343;-77